sensor_id;sensor_type;location;lat;lon;timestamp;temperature;humidity
11647;DHT22;5880;52.342;9.662;2023-01-09T00:01:40;10.90;66.00
11647;DHT22;5880;52.342;9.662;2023-01-09T00:04:07;10.80;65.90
11647;DHT22;5880;52.342;9.662;2023-01-09T00:06:34;10.80;65.80
11647;DHT22;5880;52.342;9.662;2023-01-09T00:09:01;10.80;65.90
11647;DHT22;5880;52.342;9.662;2023-01-09T00:11:27;10.80;65.90
11647;DHT22;5880;52.342;9.662;2023-01-09T00:13:53;10.80;66.00
11647;DHT22;5880;52.342;9.662;2023-01-09T00:16:19;10.70;66.10
11647;DHT22;5880;52.342;9.662;2023-01-09T00:18:45;10.80;66.20
11647;DHT22;5880;52.342;9.662;2023-01-09T00:21:13;10.70;66.30
11647;DHT22;5880;52.342;9.662;2023-01-09T00:23:39;10.70;66.50
11647;DHT22;5880;52.342;9.662;2023-01-09T00:26:13;10.70;66.60
11647;DHT22;5880;52.342;9.662;2023-01-09T00:28:43;10.70;66.70
11647;DHT22;5880;52.342;9.662;2023-01-09T00:31:10;10.70;66.90
11647;DHT22;5880;52.342;9.662;2023-01-09T00:36:19;10.70;67.20
11647;DHT22;5880;52.342;9.662;2023-01-09T00:38:44;10.70;67.70
11647;DHT22;5880;52.342;9.662;2023-01-09T00:41:15;10.80;67.10
11647;DHT22;5880;52.342;9.662;2023-01-09T00:43:50;10.80;67.20
11647;DHT22;5880;52.342;9.662;2023-01-09T00:46:21;10.80;67.10
11647;DHT22;5880;52.342;9.662;2023-01-09T00:48:51;10.90;67.20
11647;DHT22;5880;52.342;9.662;2023-01-09T00:51:18;10.90;67.20
11647;DHT22;5880;52.342;9.662;2023-01-09T00:53:45;11.00;67.20
11647;DHT22;5880;52.342;9.662;2023-01-09T00:56:16;11.00;67.20
11647;DHT22;5880;52.342;9.662;2023-01-09T00:58:44;11.00;67.20
11647;DHT22;5880;52.342;9.662;2023-01-09T01:01:10;11.00;67.10
11647;DHT22;5880;52.342;9.662;2023-01-09T01:03:37;11.00;67.00
11647;DHT22;5880;52.342;9.662;2023-01-09T01:06:02;11.10;67.10
11647;DHT22;5880;52.342;9.662;2023-01-09T01:08:46;11.10;67.10
11647;DHT22;5880;52.342;9.662;2023-01-09T01:11:12;11.10;67.00
11647;DHT22;5880;52.342;9.662;2023-01-09T01:13:39;11.10;67.00
11647;DHT22;5880;52.342;9.662;2023-01-09T01:16:07;11.20;67.00
11647;DHT22;5880;52.342;9.662;2023-01-09T01:18:34;11.20;67.00
11647;DHT22;5880;52.342;9.662;2023-01-09T01:21:07;11.10;67.00
11647;DHT22;5880;52.342;9.662;2023-01-09T01:23:35;11.20;67.00
11647;DHT22;5880;52.342;9.662;2023-01-09T01:26:06;11.20;67.00
11647;DHT22;5880;52.342;9.662;2023-01-09T01:28:33;11.20;67.10
11647;DHT22;5880;52.342;9.662;2023-01-09T01:31:00;11.20;67.00
11647;DHT22;5880;52.342;9.662;2023-01-09T01:33:26;11.20;67.00
11647;DHT22;5880;52.342;9.662;2023-01-09T01:36:03;11.30;67.00
11647;DHT22;5880;52.342;9.662;2023-01-09T01:38:30;11.30;67.10
11647;DHT22;5880;52.342;9.662;2023-01-09T01:40:57;11.30;67.00
11647;DHT22;5880;52.342;9.662;2023-01-09T01:43:23;11.30;67.00
11647;DHT22;5880;52.342;9.662;2023-01-09T01:45:49;11.30;67.00
11647;DHT22;5880;52.342;9.662;2023-01-09T01:48:19;11.30;67.00
11647;DHT22;5880;52.342;9.662;2023-01-09T01:50:58;11.30;67.00
11647;DHT22;5880;52.342;9.662;2023-01-09T01:53:43;11.30;67.20
11647;DHT22;5880;52.342;9.662;2023-01-09T01:56:27;11.30;67.30
11647;DHT22;5880;52.342;9.662;2023-01-09T01:59:07;11.30;67.20
11647;DHT22;5880;52.342;9.662;2023-01-09T02:01:34;11.30;67.10
11647;DHT22;5880;52.342;9.662;2023-01-09T02:04:03;11.30;67.00
11647;DHT22;5880;52.342;9.662;2023-01-09T02:06:29;11.30;67.00
11647;DHT22;5880;52.342;9.662;2023-01-09T02:08:57;11.30;67.20
11647;DHT22;5880;52.342;9.662;2023-01-09T02:11:23;11.30;67.10
11647;DHT22;5880;52.342;9.662;2023-01-09T02:13:49;11.30;67.10
11647;DHT22;5880;52.342;9.662;2023-01-09T02:16:21;11.30;67.20
11647;DHT22;5880;52.342;9.662;2023-01-09T02:25:27;11.20;67.20
11647;DHT22;5880;52.342;9.662;2023-01-09T02:28:51;11.10;67.60
11647;DHT22;5880;52.342;9.662;2023-01-09T02:34:13;11.20;67.10
11647;DHT22;5880;52.342;9.662;2023-01-09T02:36:55;11.10;67.70
11647;DHT22;5880;52.342;9.662;2023-01-09T02:39:42;11.10;67.50
11647;DHT22;5880;52.342;9.662;2023-01-09T02:42:23;11.10;67.80
11647;DHT22;5880;52.342;9.662;2023-01-09T02:44:51;11.10;67.60
11647;DHT22;5880;52.342;9.662;2023-01-09T02:49:47;11.10;67.80
11647;DHT22;5880;52.342;9.662;2023-01-09T02:55:39;11.10;68.70
11647;DHT22;5880;52.342;9.662;2023-01-09T03:01:30;11.00;68.30
11647;DHT22;5880;52.342;9.662;2023-01-09T03:07:03;11.00;68.00
11647;DHT22;5880;52.342;9.662;2023-01-09T03:09:39;11.00;69.10
11647;DHT22;5880;52.342;9.662;2023-01-09T03:12:12;11.00;68.30
11647;DHT22;5880;52.342;9.662;2023-01-09T03:14:46;11.00;68.50
11647;DHT22;5880;52.342;9.662;2023-01-09T03:17:19;11.00;68.50
11647;DHT22;5880;52.342;9.662;2023-01-09T03:19:52;11.00;68.50
11647;DHT22;5880;52.342;9.662;2023-01-09T03:22:20;10.90;68.50
11647;DHT22;5880;52.342;9.662;2023-01-09T03:24:46;10.90;68.40
11647;DHT22;5880;52.342;9.662;2023-01-09T03:27:12;10.90;68.50
11647;DHT22;5880;52.342;9.662;2023-01-09T03:29:38;10.90;68.60
11647;DHT22;5880;52.342;9.662;2023-01-09T03:32:03;10.90;68.70
11647;DHT22;5880;52.342;9.662;2023-01-09T03:34:29;10.90;68.70
11647;DHT22;5880;52.342;9.662;2023-01-09T03:36:55;10.90;68.90
11647;DHT22;5880;52.342;9.662;2023-01-09T03:39:20;10.90;68.90
11647;DHT22;5880;52.342;9.662;2023-01-09T03:41:46;10.90;68.90
11647;DHT22;5880;52.342;9.662;2023-01-09T03:44:12;10.90;69.00
11647;DHT22;5880;52.342;9.662;2023-01-09T03:46:37;10.90;69.00
11647;DHT22;5880;52.342;9.662;2023-01-09T03:49:03;10.90;69.10
11647;DHT22;5880;52.342;9.662;2023-01-09T03:51:28;10.90;69.10
11647;DHT22;5880;52.342;9.662;2023-01-09T03:53:54;10.90;69.00
11647;DHT22;5880;52.342;9.662;2023-01-09T03:56:20;10.70;68.90
11647;DHT22;5880;52.342;9.662;2023-01-09T03:58:45;10.90;69.10
11647;DHT22;5880;52.342;9.662;2023-01-09T04:01:14;10.90;69.10
11647;DHT22;5880;52.342;9.662;2023-01-09T04:03:40;10.90;69.10
11647;DHT22;5880;52.342;9.662;2023-01-09T04:06:06;10.90;69.30
11647;DHT22;5880;52.342;9.662;2023-01-09T04:08:32;11.00;69.20
11647;DHT22;5880;52.342;9.662;2023-01-09T04:10:58;10.90;69.30
11647;DHT22;5880;52.342;9.662;2023-01-09T04:13:23;11.00;69.20
11647;DHT22;5880;52.342;9.662;2023-01-09T04:15:49;11.00;69.20
11647;DHT22;5880;52.342;9.662;2023-01-09T04:18:15;11.00;69.20
11647;DHT22;5880;52.342;9.662;2023-01-09T04:20:41;11.00;69.20
11647;DHT22;5880;52.342;9.662;2023-01-09T04:23:07;11.00;69.20
11647;DHT22;5880;52.342;9.662;2023-01-09T04:25:33;11.00;69.30
11647;DHT22;5880;52.342;9.662;2023-01-09T04:27:59;11.30;69.60
11647;DHT22;5880;52.342;9.662;2023-01-09T04:30:24;11.00;69.40
11647;DHT22;5880;52.342;9.662;2023-01-09T04:32:51;11.00;69.40
11647;DHT22;5880;52.342;9.662;2023-01-09T04:35:19;11.00;69.40
11647;DHT22;5880;52.342;9.662;2023-01-09T04:37:45;11.10;69.50
11647;DHT22;5880;52.342;9.662;2023-01-09T04:40:11;11.10;70.00
11647;DHT22;5880;52.342;9.662;2023-01-09T04:42:38;11.10;69.10
11647;DHT22;5880;52.342;9.662;2023-01-09T04:45:05;11.10;69.10
11647;DHT22;5880;52.342;9.662;2023-01-09T04:47:32;11.10;69.00
11647;DHT22;5880;52.342;9.662;2023-01-09T04:49:58;11.00;68.80
11647;DHT22;5880;52.342;9.662;2023-01-09T04:52:24;11.00;68.70
11647;DHT22;5880;52.342;9.662;2023-01-09T04:54:50;11.00;68.70
11647;DHT22;5880;52.342;9.662;2023-01-09T04:57:16;11.00;68.70
11647;DHT22;5880;52.342;9.662;2023-01-09T04:59:42;11.00;68.60
11647;DHT22;5880;52.342;9.662;2023-01-09T05:02:08;11.00;68.60
11647;DHT22;5880;52.342;9.662;2023-01-09T05:04:34;11.00;68.60
11647;DHT22;5880;52.342;9.662;2023-01-09T05:07:00;11.00;68.50
11647;DHT22;5880;52.342;9.662;2023-01-09T05:09:26;11.00;68.50
11647;DHT22;5880;52.342;9.662;2023-01-09T05:11:52;11.00;68.50
11647;DHT22;5880;52.342;9.662;2023-01-09T05:14:18;11.00;68.50
11647;DHT22;5880;52.342;9.662;2023-01-09T05:16:44;11.00;68.50
11647;DHT22;5880;52.342;9.662;2023-01-09T05:19:09;11.00;68.50
11647;DHT22;5880;52.342;9.662;2023-01-09T05:21:35;10.90;68.50
11647;DHT22;5880;52.342;9.662;2023-01-09T05:24:01;10.90;68.60
11647;DHT22;5880;52.342;9.662;2023-01-09T05:26:26;10.90;68.60
11647;DHT22;5880;52.342;9.662;2023-01-09T05:28:53;10.90;68.60
11647;DHT22;5880;52.342;9.662;2023-01-09T05:31:21;10.90;68.60
11647;DHT22;5880;52.342;9.662;2023-01-09T05:33:48;10.90;68.70
11647;DHT22;5880;52.342;9.662;2023-01-09T05:36:14;10.90;68.70
11647;DHT22;5880;52.342;9.662;2023-01-09T05:38:40;10.90;68.80
11647;DHT22;5880;52.342;9.662;2023-01-09T05:41:06;10.90;68.80
11647;DHT22;5880;52.342;9.662;2023-01-09T05:43:32;10.90;68.80
11647;DHT22;5880;52.342;9.662;2023-01-09T05:45:58;10.90;68.90
11647;DHT22;5880;52.342;9.662;2023-01-09T05:48:24;10.90;69.00
11647;DHT22;5880;52.342;9.662;2023-01-09T05:50:50;10.80;68.90
11647;DHT22;5880;52.342;9.662;2023-01-09T05:53:15;10.90;69.00
11647;DHT22;5880;52.342;9.662;2023-01-09T05:55:41;10.80;69.00
11647;DHT22;5880;52.342;9.662;2023-01-09T05:58:07;10.80;69.40
11647;DHT22;5880;52.342;9.662;2023-01-09T06:00:33;10.80;69.00
11647;DHT22;5880;52.342;9.662;2023-01-09T06:02:59;10.90;69.80
11647;DHT22;5880;52.342;9.662;2023-01-09T06:05:24;10.90;69.10
11647;DHT22;5880;52.342;9.662;2023-01-09T06:07:50;10.90;69.10
11647;DHT22;5880;52.342;9.662;2023-01-09T06:10:16;10.80;68.90
11647;DHT22;5880;52.342;9.662;2023-01-09T06:12:46;10.80;68.90
11647;DHT22;5880;52.342;9.662;2023-01-09T06:15:16;10.80;69.00
11647;DHT22;5880;52.342;9.662;2023-01-09T06:17:42;10.80;68.80
11647;DHT22;5880;52.342;9.662;2023-01-09T06:20:09;10.80;68.80
11647;DHT22;5880;52.342;9.662;2023-01-09T06:22:36;10.80;68.70
11647;DHT22;5880;52.342;9.662;2023-01-09T06:25:02;10.80;68.50
11647;DHT22;5880;52.342;9.662;2023-01-09T06:27:28;10.80;68.50
11647;DHT22;5880;52.342;9.662;2023-01-09T06:29:53;10.70;68.50
11647;DHT22;5880;52.342;9.662;2023-01-09T06:32:19;10.70;68.40
11647;DHT22;5880;52.342;9.662;2023-01-09T06:34:45;10.60;68.30
11647;DHT22;5880;52.342;9.662;2023-01-09T06:37:10;10.60;68.20
11647;DHT22;5880;52.342;9.662;2023-01-09T06:39:36;10.50;68.30
11647;DHT22;5880;52.342;9.662;2023-01-09T06:42:02;10.50;68.20
11647;DHT22;5880;52.342;9.662;2023-01-09T06:44:28;10.50;68.20
11647;DHT22;5880;52.342;9.662;2023-01-09T06:46:53;10.40;68.20
11647;DHT22;5880;52.342;9.662;2023-01-09T06:49:19;10.40;68.10
11647;DHT22;5880;52.342;9.662;2023-01-09T06:51:49;10.30;68.00
11647;DHT22;5880;52.342;9.662;2023-01-09T06:54:16;10.30;68.10
11647;DHT22;5880;52.342;9.662;2023-01-09T06:56:43;10.20;67.90
11647;DHT22;5880;52.342;9.662;2023-01-09T06:59:08;10.20;68.00
11647;DHT22;5880;52.342;9.662;2023-01-09T07:01:34;10.10;68.00
11647;DHT22;5880;52.342;9.662;2023-01-09T07:04:00;10.10;68.00
11647;DHT22;5880;52.342;9.662;2023-01-09T07:06:26;10.00;68.00
11647;DHT22;5880;52.342;9.662;2023-01-09T07:08:51;10.00;68.00
11647;DHT22;5880;52.342;9.662;2023-01-09T07:11:17;10.00;68.10
11647;DHT22;5880;52.342;9.662;2023-01-09T07:13:43;9.90;68.00
11647;DHT22;5880;52.342;9.662;2023-01-09T07:16:08;9.90;68.00
11647;DHT22;5880;52.342;9.662;2023-01-09T07:18:34;9.90;68.10
11647;DHT22;5880;52.342;9.662;2023-01-09T07:21:00;9.80;68.10
11647;DHT22;5880;52.342;9.662;2023-01-09T07:23:25;9.80;68.10
11647;DHT22;5880;52.342;9.662;2023-01-09T07:25:51;9.80;68.10
11647;DHT22;5880;52.342;9.662;2023-01-09T07:28:17;9.80;68.00
11647;DHT22;5880;52.342;9.662;2023-01-09T07:30:42;9.70;68.00
11647;DHT22;5880;52.342;9.662;2023-01-09T07:33:08;9.70;68.00
11647;DHT22;5880;52.342;9.662;2023-01-09T07:35:34;9.70;68.00
11647;DHT22;5880;52.342;9.662;2023-01-09T07:38:00;9.70;68.00
11647;DHT22;5880;52.342;9.662;2023-01-09T07:40:25;9.60;67.90
11647;DHT22;5880;52.342;9.662;2023-01-09T07:42:52;9.70;67.90
11647;DHT22;5880;52.342;9.662;2023-01-09T07:45:18;9.60;67.90
11647;DHT22;5880;52.342;9.662;2023-01-09T07:47:44;9.60;67.90
11647;DHT22;5880;52.342;9.662;2023-01-09T07:50:10;9.60;67.80
11647;DHT22;5880;52.342;9.662;2023-01-09T07:52:35;9.60;67.80
11647;DHT22;5880;52.342;9.662;2023-01-09T07:55:01;9.70;67.90
11647;DHT22;5880;52.342;9.662;2023-01-09T07:57:27;9.60;67.70
11647;DHT22;5880;52.342;9.662;2023-01-09T07:59:55;9.50;67.60
11647;DHT22;5880;52.342;9.662;2023-01-09T08:02:20;9.60;67.50
11647;DHT22;5880;52.342;9.662;2023-01-09T08:04:46;9.50;67.50
11647;DHT22;5880;52.342;9.662;2023-01-09T08:07:12;9.50;67.50
11647;DHT22;5880;52.342;9.662;2023-01-09T08:09:37;9.50;67.50
11647;DHT22;5880;52.342;9.662;2023-01-09T08:12:03;9.50;67.60
11647;DHT22;5880;52.342;9.662;2023-01-09T08:14:29;9.50;67.70
11647;DHT22;5880;52.342;9.662;2023-01-09T08:16:55;9.50;68.50
11647;DHT22;5880;52.342;9.662;2023-01-09T08:19:21;9.50;67.80
11647;DHT22;5880;52.342;9.662;2023-01-09T08:21:46;9.50;67.90
11647;DHT22;5880;52.342;9.662;2023-01-09T08:24:12;9.50;68.10
11647;DHT22;5880;52.342;9.662;2023-01-09T08:26:38;9.50;68.20
11647;DHT22;5880;52.342;9.662;2023-01-09T08:29:03;9.50;68.30
11647;DHT22;5880;52.342;9.662;2023-01-09T08:31:30;9.60;68.30
11647;DHT22;5880;52.342;9.662;2023-01-09T08:33:56;9.70;68.50
11647;DHT22;5880;52.342;9.662;2023-01-09T08:36:22;9.70;68.60
11647;DHT22;5880;52.342;9.662;2023-01-09T08:38:47;9.70;68.60
11647;DHT22;5880;52.342;9.662;2023-01-09T08:41:13;9.70;68.50
11647;DHT22;5880;52.342;9.662;2023-01-09T08:43:57;9.80;68.50
11647;DHT22;5880;52.342;9.662;2023-01-09T08:46:41;9.80;68.30
11647;DHT22;5880;52.342;9.662;2023-01-09T08:49:26;9.90;68.30
11647;DHT22;5880;52.342;9.662;2023-01-09T08:51:51;9.90;68.20
11647;DHT22;5880;52.342;9.662;2023-01-09T08:54:17;9.90;68.10
11647;DHT22;5880;52.342;9.662;2023-01-09T08:56:43;9.90;67.90
11647;DHT22;5880;52.342;9.662;2023-01-09T08:59:09;10.00;67.90
11647;DHT22;5880;52.342;9.662;2023-01-09T09:01:35;10.00;67.90
11647;DHT22;5880;52.342;9.662;2023-01-09T09:04:01;9.90;67.90
11647;DHT22;5880;52.342;9.662;2023-01-09T09:06:27;10.00;67.90
11647;DHT22;5880;52.342;9.662;2023-01-09T09:08:52;10.00;68.00
11647;DHT22;5880;52.342;9.662;2023-01-09T09:11:18;10.00;68.10
11647;DHT22;5880;52.342;9.662;2023-01-09T09:13:44;10.00;68.10
11647;DHT22;5880;52.342;9.662;2023-01-09T09:16:09;10.10;68.30
11647;DHT22;5880;52.342;9.662;2023-01-09T09:18:35;10.10;68.30
11647;DHT22;5880;52.342;9.662;2023-01-09T09:21:00;10.20;68.40
11647;DHT22;5880;52.342;9.662;2023-01-09T09:23:26;10.30;68.60
11647;DHT22;5880;52.342;9.662;2023-01-09T09:25:52;10.30;68.60
11647;DHT22;5880;52.342;9.662;2023-01-09T09:28:17;10.40;68.50
11647;DHT22;5880;52.342;9.662;2023-01-09T09:30:43;10.40;68.30
11647;DHT22;5880;52.342;9.662;2023-01-09T09:33:09;10.50;68.30
11647;DHT22;5880;52.342;9.662;2023-01-09T09:35:35;10.50;68.10
11647;DHT22;5880;52.342;9.662;2023-01-09T09:38:02;10.60;67.90
11647;DHT22;5880;52.342;9.662;2023-01-09T09:40:46;10.60;68.00
11647;DHT22;5880;52.342;9.662;2023-01-09T09:47:33;10.70;68.00
11647;DHT22;5880;52.342;9.662;2023-01-09T09:53:31;10.90;67.80
11647;DHT22;5880;52.342;9.662;2023-01-09T09:56:02;11.00;67.60
11647;DHT22;5880;52.342;9.662;2023-01-09T09:58:38;11.00;67.70
11647;DHT22;5880;52.342;9.662;2023-01-09T10:01:07;11.00;67.50
11647;DHT22;5880;52.342;9.662;2023-01-09T10:03:45;11.10;67.50
11647;DHT22;5880;52.342;9.662;2023-01-09T10:06:20;11.10;67.30
11647;DHT22;5880;52.342;9.662;2023-01-09T10:12:28;11.10;66.70
11647;DHT22;5880;52.342;9.662;2023-01-09T10:14:58;11.10;66.50
11647;DHT22;5880;52.342;9.662;2023-01-09T10:18:08;11.00;66.40
11647;DHT22;5880;52.342;9.662;2023-01-09T10:23:43;11.00;66.40
11647;DHT22;5880;52.342;9.662;2023-01-09T10:26:37;11.00;66.30
11647;DHT22;5880;52.342;9.662;2023-01-09T10:37:44;11.00;66.60
11647;DHT22;5880;52.342;9.662;2023-01-09T10:40:26;11.10;66.90
11647;DHT22;5880;52.342;9.662;2023-01-09T10:43:01;11.10;66.80
11647;DHT22;5880;52.342;9.662;2023-01-09T10:45:43;11.20;67.00
11647;DHT22;5880;52.342;9.662;2023-01-09T10:48:44;11.20;66.70
11647;DHT22;5880;52.342;9.662;2023-01-09T10:51:23;11.30;66.60
11647;DHT22;5880;52.342;9.662;2023-01-09T10:53:54;11.30;66.80
11647;DHT22;5880;52.342;9.662;2023-01-09T10:56:27;11.30;66.50
11647;DHT22;5880;52.342;9.662;2023-01-09T10:58:56;11.40;66.30
11647;DHT22;5880;52.342;9.662;2023-01-09T11:01:30;11.40;66.20
11647;DHT22;5880;52.342;9.662;2023-01-09T11:03:57;11.40;65.60
11647;DHT22;5880;52.342;9.662;2023-01-09T11:06:35;11.40;65.70
11647;DHT22;5880;52.342;9.662;2023-01-09T11:09:08;11.40;65.50
11647;DHT22;5880;52.342;9.662;2023-01-09T11:11:39;11.40;65.80
11647;DHT22;5880;52.342;9.662;2023-01-09T11:14:17;11.40;65.50
11647;DHT22;5880;52.342;9.662;2023-01-09T11:16:56;11.40;65.30
11647;DHT22;5880;52.342;9.662;2023-01-09T11:19:25;11.40;65.60
11647;DHT22;5880;52.342;9.662;2023-01-09T11:22:17;11.40;65.70
11647;DHT22;5880;52.342;9.662;2023-01-09T11:24:44;11.40;65.00
11647;DHT22;5880;52.342;9.662;2023-01-09T11:27:16;11.40;65.80
11647;DHT22;5880;52.342;9.662;2023-01-09T11:32:34;11.50;65.30
11647;DHT22;5880;52.342;9.662;2023-01-09T11:35:03;11.50;65.80
11647;DHT22;5880;52.342;9.662;2023-01-09T11:37:31;11.50;65.60
11647;DHT22;5880;52.342;9.662;2023-01-09T11:39:58;11.50;65.70
11647;DHT22;5880;52.342;9.662;2023-01-09T11:42:27;11.50;65.50
11647;DHT22;5880;52.342;9.662;2023-01-09T11:45:20;11.50;65.50
11647;DHT22;5880;52.342;9.662;2023-01-09T11:47:52;11.60;65.40
11647;DHT22;5880;52.342;9.662;2023-01-09T11:50:21;10.90;65.10
11647;DHT22;5880;52.342;9.662;2023-01-09T11:53:12;11.60;65.40
11647;DHT22;5880;52.342;9.662;2023-01-09T11:55:41;11.60;64.90
11647;DHT22;5880;52.342;9.662;2023-01-09T11:58:15;11.60;65.40
11647;DHT22;5880;52.342;9.662;2023-01-09T12:06:45;11.70;65.40
11647;DHT22;5880;52.342;9.662;2023-01-09T12:09:34;11.70;65.40
11647;DHT22;5880;52.342;9.662;2023-01-09T12:15:25;11.70;64.70
11647;DHT22;5880;52.342;9.662;2023-01-09T12:18:07;11.70;64.50
11647;DHT22;5880;52.342;9.662;2023-01-09T12:21:09;11.70;65.10
11647;DHT22;5880;52.342;9.662;2023-01-09T12:24:01;11.70;64.80
11647;DHT22;5880;52.342;9.662;2023-01-09T12:27:27;11.70;64.50
11647;DHT22;5880;52.342;9.662;2023-01-09T12:33:39;11.80;64.30
11647;DHT22;5880;52.342;9.662;2023-01-09T12:39:06;11.70;64.00
11647;DHT22;5880;52.342;9.662;2023-01-09T12:45:08;11.80;63.90
11647;DHT22;5880;52.342;9.662;2023-01-09T12:48:22;11.80;64.00
11647;DHT22;5880;52.342;9.662;2023-01-09T12:54:18;12.00;64.30
11647;DHT22;5880;52.342;9.662;2023-01-09T12:56:54;11.80;64.20
11647;DHT22;5880;52.342;9.662;2023-01-09T12:59:47;11.80;64.00
11647;DHT22;5880;52.342;9.662;2023-01-09T13:02:37;11.90;63.50
11647;DHT22;5880;52.342;9.662;2023-01-09T13:05:20;11.80;63.70
11647;DHT22;5880;52.342;9.662;2023-01-09T13:07:57;11.80;63.20
11647;DHT22;5880;52.342;9.662;2023-01-09T13:10:30;11.80;63.70
11647;DHT22;5880;52.342;9.662;2023-01-09T13:16:06;11.80;63.70
11647;DHT22;5880;52.342;9.662;2023-01-09T13:18:46;11.80;63.60
11647;DHT22;5880;52.342;9.662;2023-01-09T13:21:17;11.80;63.80
11647;DHT22;5880;52.342;9.662;2023-01-09T13:23:48;11.80;63.90
11647;DHT22;5880;52.342;9.662;2023-01-09T13:26:28;11.80;63.80
11647;DHT22;5880;52.342;9.662;2023-01-09T13:29:11;11.80;63.70
11647;DHT22;5880;52.342;9.662;2023-01-09T13:34:46;11.80;63.80
11647;DHT22;5880;52.342;9.662;2023-01-09T13:37:21;11.80;63.80
11647;DHT22;5880;52.342;9.662;2023-01-09T13:39:59;11.80;63.60
11647;DHT22;5880;52.342;9.662;2023-01-09T13:42:26;11.80;63.50
11647;DHT22;5880;52.342;9.662;2023-01-09T13:45:21;11.80;63.80
11647;DHT22;5880;52.342;9.662;2023-01-09T13:50:45;12.40;63.70
11647;DHT22;5880;52.342;9.662;2023-01-09T13:56:04;11.70;63.80
11647;DHT22;5880;52.342;9.662;2023-01-09T14:06:40;11.70;63.90
11647;DHT22;5880;52.342;9.662;2023-01-09T14:09:18;11.70;64.20
11647;DHT22;5880;52.342;9.662;2023-01-09T14:11:47;11.60;64.30
11647;DHT22;5880;52.342;9.662;2023-01-09T14:14:29;11.60;64.50
11647;DHT22;5880;52.342;9.662;2023-01-09T14:16:58;11.60;64.70
11647;DHT22;5880;52.342;9.662;2023-01-09T14:19:33;11.50;64.80
11647;DHT22;5880;52.342;9.662;2023-01-09T14:22:03;11.50;64.90
11647;DHT22;5880;52.342;9.662;2023-01-09T14:24:38;11.50;64.80
11647;DHT22;5880;52.342;9.662;2023-01-09T14:36:24;11.40;64.30
11647;DHT22;5880;52.342;9.662;2023-01-09T14:38:58;11.30;64.50
11647;DHT22;5880;52.342;9.662;2023-01-09T14:41:33;11.30;64.70
11647;DHT22;5880;52.342;9.662;2023-01-09T14:47:19;11.30;64.80
11647;DHT22;5880;52.342;9.662;2023-01-09T14:53:05;11.20;64.30
11647;DHT22;5880;52.342;9.662;2023-01-09T14:55:46;11.20;64.30
11647;DHT22;5880;52.342;9.662;2023-01-09T15:01:06;11.20;64.10
11647;DHT22;5880;52.342;9.662;2023-01-09T15:03:56;11.20;64.10
11647;DHT22;5880;52.342;9.662;2023-01-09T15:06:32;11.20;64.20
11647;DHT22;5880;52.342;9.662;2023-01-09T15:09:07;11.10;64.20
11647;DHT22;5880;52.342;9.662;2023-01-09T15:11:44;11.20;64.00
11647;DHT22;5880;52.342;9.662;2023-01-09T15:14:27;11.20;64.20
11647;DHT22;5880;52.342;9.662;2023-01-09T15:16:57;11.20;64.10
11647;DHT22;5880;52.342;9.662;2023-01-09T15:19:25;11.20;64.30
11647;DHT22;5880;52.342;9.662;2023-01-09T15:22:02;11.20;64.30
11647;DHT22;5880;52.342;9.662;2023-01-09T15:24:31;11.20;64.10
11647;DHT22;5880;52.342;9.662;2023-01-09T15:27:14;11.20;64.30
11647;DHT22;5880;52.342;9.662;2023-01-09T15:29:40;11.20;64.20
11647;DHT22;5880;52.342;9.662;2023-01-09T15:32:20;11.20;64.40
11647;DHT22;5880;52.342;9.662;2023-01-09T15:34:49;11.20;64.30
11647;DHT22;5880;52.342;9.662;2023-01-09T15:37:35;11.20;64.40
11647;DHT22;5880;52.342;9.662;2023-01-09T15:40:04;11.20;64.50
11647;DHT22;5880;52.342;9.662;2023-01-09T15:42:38;11.10;64.50
11647;DHT22;5880;52.342;9.662;2023-01-09T15:45:28;11.10;64.80
11647;DHT22;5880;52.342;9.662;2023-01-09T15:50:47;11.00;65.10
11647;DHT22;5880;52.342;9.662;2023-01-09T15:53:21;11.00;64.90
11647;DHT22;5880;52.342;9.662;2023-01-09T15:58:39;11.00;65.40
11647;DHT22;5880;52.342;9.662;2023-01-09T16:01:32;10.90;65.00
11647;DHT22;5880;52.342;9.662;2023-01-09T16:04:15;10.90;65.50
11647;DHT22;5880;52.342;9.662;2023-01-09T16:06:47;10.80;65.70
11647;DHT22;5880;52.342;9.662;2023-01-09T16:09:44;10.70;65.60
11647;DHT22;5880;52.342;9.662;2023-01-09T16:12:26;10.70;65.90
11647;DHT22;5880;52.342;9.662;2023-01-09T16:15:01;10.70;66.00
11647;DHT22;5880;52.342;9.662;2023-01-09T16:17:27;10.60;66.10
11647;DHT22;5880;52.342;9.662;2023-01-09T16:20:13;10.60;65.80
11647;DHT22;5880;52.342;9.662;2023-01-09T16:22:54;10.50;66.40
11647;DHT22;5880;52.342;9.662;2023-01-09T16:25:28;10.50;66.40
11647;DHT22;5880;52.342;9.662;2023-01-09T16:31:00;10.50;66.70
11647;DHT22;5880;52.342;9.662;2023-01-09T16:33:31;10.50;66.60
11647;DHT22;5880;52.342;9.662;2023-01-09T16:35:58;10.50;66.30
11647;DHT22;5880;52.342;9.662;2023-01-09T16:38:24;10.40;66.40
11647;DHT22;5880;52.342;9.662;2023-01-09T16:41:17;10.40;66.50
11647;DHT22;5880;52.342;9.662;2023-01-09T16:44:03;10.40;67.20
11647;DHT22;5880;52.342;9.662;2023-01-09T16:46:39;10.40;66.60
11647;DHT22;5880;52.342;9.662;2023-01-09T16:49:18;10.40;66.80
11647;DHT22;5880;52.342;9.662;2023-01-09T16:51:47;10.40;67.10
11647;DHT22;5880;52.342;9.662;2023-01-09T16:54:12;10.40;66.80
11647;DHT22;5880;52.342;9.662;2023-01-09T16:56:39;10.40;66.80
11647;DHT22;5880;52.342;9.662;2023-01-09T16:59:14;10.40;66.90
11647;DHT22;5880;52.342;9.662;2023-01-09T17:01:46;10.40;66.90
11647;DHT22;5880;52.342;9.662;2023-01-09T17:04:13;10.40;66.90
11647;DHT22;5880;52.342;9.662;2023-01-09T17:06:40;10.40;67.00
11647;DHT22;5880;52.342;9.662;2023-01-09T17:09:14;10.40;67.00
11647;DHT22;5880;52.342;9.662;2023-01-09T17:11:42;10.40;67.30
11647;DHT22;5880;52.342;9.662;2023-01-09T17:14:11;10.40;67.10
11647;DHT22;5880;52.342;9.662;2023-01-09T17:16:37;10.40;67.10
11647;DHT22;5880;52.342;9.662;2023-01-09T17:19:05;10.40;67.00
11647;DHT22;5880;52.342;9.662;2023-01-09T17:21:31;10.30;67.10
11647;DHT22;5880;52.342;9.662;2023-01-09T17:23:58;10.40;66.90
11647;DHT22;5880;52.342;9.662;2023-01-09T17:26:45;10.40;66.90
11647;DHT22;5880;52.342;9.662;2023-01-09T17:29:33;10.30;67.00
11647;DHT22;5880;52.342;9.662;2023-01-09T17:31:59;10.30;67.00
11647;DHT22;5880;52.342;9.662;2023-01-09T17:34:25;10.30;67.10
11647;DHT22;5880;52.342;9.662;2023-01-09T17:36:51;10.20;66.90
11647;DHT22;5880;52.342;9.662;2023-01-09T17:39:20;10.20;66.80
11647;DHT22;5880;52.342;9.662;2023-01-09T17:41:46;10.20;67.00
11647;DHT22;5880;52.342;9.662;2023-01-09T17:44:12;10.20;66.90
11647;DHT22;5880;52.342;9.662;2023-01-09T17:46:40;10.10;66.90
11647;DHT22;5880;52.342;9.662;2023-01-09T17:49:19;10.10;67.00
11647;DHT22;5880;52.342;9.662;2023-01-09T17:51:45;10.00;67.30
11647;DHT22;5880;52.342;9.662;2023-01-09T17:54:12;10.00;67.00
11647;DHT22;5880;52.342;9.662;2023-01-09T17:56:40;10.00;67.00
11647;DHT22;5880;52.342;9.662;2023-01-09T17:59:12;10.00;67.10
11647;DHT22;5880;52.342;9.662;2023-01-09T18:01:40;10.00;67.30
11647;DHT22;5880;52.342;9.662;2023-01-09T18:04:06;10.00;67.20
11647;DHT22;5880;52.342;9.662;2023-01-09T18:06:32;9.90;67.30
11647;DHT22;5880;52.342;9.662;2023-01-09T18:08:58;9.90;67.50
11647;DHT22;5880;52.342;9.662;2023-01-09T18:11:25;9.90;67.60